Time;durP1;ratioP1;P1;durP2;ratioP2;P2;SDS_P1;SDS_P2;PMS_P1;PMS_P2;Temp;Humidity;BMP_temperature;BMP_pressure;BME280_temperature;BME280_humidity;BME280_pressure;Samples;Min_cycle;Max_cycle;Signal;HPM_P1;HPM_P2
2020/12/31 00:01:31;;;;;;;12.90;7.20;;;3.60;99.90;;;;;;5109081;28;20084;-80
2020/12/31 00:03:57;;;;;;;12.67;7.87;;;3.60;99.90;;;;;;5095133;28;20062;-80
2020/12/31 00:06:23;;;;;;;11.00;7.93;;;3.60;99.90;;;;;;5094061;28;20466;-80
2020/12/31 00:08:49;;;;;;;11.90;7.97;;;3.60;99.90;;;;;;5093579;28;20035;-78
2020/12/31 00:11:18;;;;;;;11.30;8.17;;;3.60;99.90;;;;;;5093237;28;20102;-80
2020/12/31 00:13:44;;;;;;;8.33;7.13;;;3.60;99.90;;;;;;5093232;28;20031;-79
2020/12/31 00:16:10;;;;;;;11.27;7.83;;;3.50;99.90;;;;;;5093175;28;20118;-79
2020/12/31 00:18:36;;;;;;;13.23;8.07;;;3.50;99.90;;;;;;5093461;28;20085;-79
2020/12/31 00:21:02;;;;;;;10.60;7.57;;;3.50;99.90;;;;;;5095075;28;20028;-79
2020/12/31 00:23:28;;;;;;;10.47;7.37;;;3.50;99.90;;;;;;5093661;28;20032;-79
2020/12/31 00:25:54;;;;;;;12.40;8.00;;;3.50;99.90;;;;;;5093774;28;20629;-79
2020/12/31 00:28:21;;;;;;;13.43;7.83;;;3.50;99.90;;;;;;5093723;28;20024;-79
2020/12/31 00:30:48;;;;;;;10.43;7.27;;;3.50;99.90;;;;;;5093609;28;20492;-79
2020/12/31 00:33:18;;;;;;;10.40;6.63;;;3.50;99.90;;;;;;5093373;28;20035;-79
2020/12/31 00:36:10;;;;;;;10.83;7.00;;;3.50;99.90;;;;;;5093545;28;20169;-79
2020/12/31 00:38:36;;;;;;;9.35;7.15;;;3.50;99.90;;;;;;5090422;28;20482;-79
2020/12/31 00:41:01;;;;;;;12.97;6.90;;;3.50;99.90;;;;;;5093265;28;20028;-79
2020/12/31 00:43:28;;;;;;;10.97;7.43;;;3.50;99.90;;;;;;5094573;28;20032;-79
2020/12/31 00:45:54;;;;;;;13.30;7.10;;;3.50;99.90;;;;;;5094590;28;20413;-79
2020/12/31 00:48:20;;;;;;;10.93;7.13;;;3.50;99.90;;;;;;5093335;28;20020;-79
2020/12/31 00:50:46;;;;;;;10.80;7.50;;;3.40;99.90;;;;;;5094544;28;20488;-79
2020/12/31 00:53:12;;;;;;;10.83;6.90;;;3.40;99.90;;;;;;5093023;28;20111;-78
2020/12/31 00:55:37;;;;;;;11.37;7.13;;;3.40;99.90;;;;;;5094389;28;20040;-79
2020/12/31 00:58:03;;;;;;;9.67;6.70;;;3.40;99.90;;;;;;5093018;28;20062;-79
2020/12/31 01:00:29;;;;;;;8.80;6.70;;;3.40;99.90;;;;;;5092799;28;20105;-79
2020/12/31 01:02:56;;;;;;;10.90;7.17;;;3.40;99.90;;;;;;5076446;28;20029;-79
2020/12/31 01:05:22;;;;;;;9.43;6.00;;;3.40;99.90;;;;;;5072721;28;20029;-79
2020/12/31 01:07:47;;;;;;;7.53;5.70;;;3.40;99.90;;;;;;5073947;28;20386;-79
2020/12/31 01:10:13;;;;;;;8.10;6.20;;;3.40;99.90;;;;;;5073821;28;20024;-79
2020/12/31 01:12:39;;;;;;;7.87;6.00;;;3.40;99.90;;;;;;5087072;28;20043;-79
2020/12/31 01:15:06;;;;;;;6.67;5.77;;;3.40;99.90;;;;;;5094071;28;20062;-79
2020/12/31 01:17:32;;;;;;;7.47;5.70;;;3.40;99.90;;;;;;5094057;28;20016;-79
2020/12/31 01:19:58;;;;;;;9.47;6.07;;;3.40;99.90;;;;;;5091745;28;20031;-78
2020/12/31 01:22:23;;;;;;;8.07;6.27;;;3.50;99.90;;;;;;5093767;28;20381;-79
2020/12/31 01:24:51;;;;;;;5.50;5.00;;;3.40;99.90;;;;;;5093899;28;20095;-79
2020/12/31 01:27:17;;;;;;;6.67;5.57;;;3.40;99.90;;;;;;5094022;28;20048;-79
2020/12/31 01:29:42;;;;;;;6.13;4.97;;;3.50;99.90;;;;;;5112827;28;20100;-79
2020/12/31 01:32:08;;;;;;;6.27;5.33;;;3.50;99.90;;;;;;5104123;28;20032;-79
2020/12/31 01:34:34;;;;;;;9.90;5.70;;;3.50;99.90;;;;;;5093703;28;20081;-79
2020/12/31 01:37:01;;;;;;;7.53;4.57;;;3.50;99.90;;;;;;5092413;28;20115;-79
2020/12/31 01:39:26;;;;;;;5.83;4.37;;;3.50;99.90;;;;;;5092349;28;20478;-79
2020/12/31 01:41:52;;;;;;;6.57;4.40;;;3.40;99.90;;;;;;5093441;28;20035;-79
2020/12/31 01:44:18;;;;;;;5.17;4.53;;;3.40;99.90;;;;;;5093457;28;20036;-79
2020/12/31 01:46:45;;;;;;;6.27;4.87;;;3.40;99.90;;;;;;5093596;28;20028;-80
2020/12/31 01:49:13;;;;;;;4.97;4.43;;;3.30;99.90;;;;;;5092247;28;20052;-79
2020/12/31 01:51:43;;;;;;;6.17;4.60;;;3.30;99.90;;;;;;5092092;28;20020;-79
2020/12/31 01:54:09;;;;;;;6.13;4.43;;;3.20;99.90;;;;;;5093445;28;20028;-79
2020/12/31 01:56:35;;;;;;;5.93;4.67;;;3.30;99.90;;;;;;5093297;28;20020;-79
2020/12/31 01:59:01;;;;;;;4.80;4.30;;;3.30;99.90;;;;;;5092083;28;20024;-79
2020/12/31 02:01:28;;;;;;;5.30;4.17;;;3.30;99.90;;;;;;5088866;28;20680;-79
2020/12/31 02:03:58;;;;;;;6.00;4.47;;;3.20;99.90;;;;;;5072949;28;20431;-79
2020/12/31 02:06:25;;;;;;;5.83;5.17;;;3.20;99.90;;;;;;5072981;28;20104;-80
2020/12/31 02:08:51;;;;;;;6.83;5.17;;;3.20;99.90;;;;;;5072985;28;20035;-80
2020/12/31 02:11:18;;;;;;;6.20;4.50;;;3.10;99.90;;;;;;5072884;28;20033;-79
2020/12/31 02:13:45;;;;;;;7.03;4.90;;;3.20;99.90;;;;;;5072859;28;20025;-79
2020/12/31 02:16:15;;;;;;;5.40;4.23;;;3.20;99.90;;;;;;5071706;28;20031;-80
2020/12/31 02:18:55;;;;;;;4.10;3.80;;;3.20;99.90;;;;;;5072897;28;20103;-79
2020/12/31 02:21:35;;;;;;;4.83;3.97;;;3.30;99.90;;;;;;5072878;28;20021;-79
2020/12/31 02:24:06;;;;;;;5.17;4.33;;;3.30;99.90;;;;;;5071592;28;20056;-79
2020/12/31 02:26:33;;;;;;;7.07;4.60;;;3.10;99.90;;;;;;5072791;28;20089;-79
2020/12/31 02:29:00;;;;;;;6.27;5.40;;;3.10;99.90;;;;;;5071555;28;20029;-79
2020/12/31 02:31:27;;;;;;;5.13;4.13;;;3.00;99.90;;;;;;5078958;28;20028;-79
2020/12/31 02:33:55;;;;;;;3.87;3.47;;;3.00;99.90;;;;;;5097121;28;20035;-79
2020/12/31 02:36:25;;;;;;;4.10;3.60;;;3.00;99.90;;;;;;5097024;28;20466;-79
2020/12/31 02:38:52;;;;;;;3.83;3.03;;;3.00;99.90;;;;;;5097144;28;20493;-79
2020/12/31 02:41:19;;;;;;;4.43;3.00;;;3.00;99.90;;;;;;5095832;28;20027;-79
2020/12/31 02:43:45;;;;;;;3.10;2.87;;;3.00;99.90;;;;;;5095620;28;20074;-79
2020/12/31 02:46:12;;;;;;;3.03;2.80;;;2.90;99.90;;;;;;5096921;28;20024;-79
2020/12/31 02:48:39;;;;;;;4.77;3.13;;;2.90;99.90;;;;;;5095626;28;20047;-79
2020/12/31 02:51:05;;;;;;;4.50;3.40;;;2.90;99.90;;;;;;5095579;28;20055;-79
2020/12/31 02:53:31;;;;;;;3.10;2.90;;;2.90;99.90;;;;;;5095461;28;20032;-79
2020/12/31 02:55:56;;;;;;;2.87;2.47;;;2.90;99.90;;;;;;5096818;28;20711;-79
2020/12/31 02:58:22;;;;;;;3.10;2.80;;;2.90;99.90;;;;;;5095282;28;20020;-79
2020/12/31 03:00:48;;;;;;;3.90;3.40;;;2.90;99.90;;;;;;5095299;28;20048;-80
2020/12/31 03:03:14;;;;;;;4.57;3.57;;;2.80;99.90;;;;;;5094854;28;20035;-79
2020/12/31 03:05:39;;;;;;;4.37;3.10;;;2.80;99.90;;;;;;5096579;28;20482;-78
2020/12/31 03:08:05;;;;;;;3.33;2.50;;;2.80;99.90;;;;;;5095899;28;20389;-78
2020/12/31 03:10:31;;;;;;;2.53;2.33;;;2.80;99.90;;;;;;5095160;28;20089;-78
2020/12/31 03:12:57;;;;;;;2.40;2.20;;;2.80;99.90;;;;;;5095150;28;20118;-78
2020/12/31 03:15:23;;;;;;;2.23;1.90;;;2.90;99.90;;;;;;5095132;28;20039;-78
2020/12/31 03:17:49;;;;;;;2.40;2.07;;;2.90;99.90;;;;;;5094750;28;20028;-78
2020/12/31 03:20:15;;;;;;;2.57;2.37;;;2.90;99.90;;;;;;5095125;28;20035;-78
2020/12/31 03:22:41;;;;;;;3.03;2.17;;;2.80;99.90;;;;;;5094697;28;20028;-78
2020/12/31 03:25:06;;;;;;;2.90;2.57;;;2.60;99.90;;;;;;5094812;28;20052;-79
2020/12/31 03:27:32;;;;;;;3.30;2.67;;;2.60;99.90;;;;;;5109637;28;20027;-78
2020/12/31 03:29:58;;;;;;;5.17;2.67;;;2.60;99.90;;;;;;5115239;28;20026;-78
2020/12/31 03:32:24;;;;;;;2.47;2.27;;;2.60;99.90;;;;;;5102963;28;20115;-78
2020/12/31 03:34:50;;;;;;;2.43;2.23;;;2.70;99.90;;;;;;5096035;28;20069;-78
2020/12/31 03:37:16;;;;;;;2.93;1.93;;;2.70;99.90;;;;;;5095620;28;20028;-78
2020/12/31 03:39:45;;;;;;;2.40;2.20;;;2.70;99.90;;;;;;5095952;28;20024;-78
2020/12/31 03:42:11;;;;;;;2.70;2.50;;;2.80;99.90;;;;;;5093312;28;20028;-78
2020/12/31 03:44:37;;;;;;;3.53;2.30;;;2.70;99.90;;;;;;5095919;28;20034;-78
2020/12/31 03:47:03;;;;;;;2.50;2.37;;;2.60;99.90;;;;;;5095373;28;20118;-78
2020/12/31 03:49:29;;;;;;;3.03;2.20;;;2.60;99.90;;;;;;5094497;28;20024;-78
2020/12/31 03:51:54;;;;;;;2.50;1.73;;;2.60;99.90;;;;;;5094421;28;20038;-78
2020/12/31 03:54:20;;;;;;;2.27;2.17;;;2.60;99.90;;;;;;5095216;28;20097;-78
2020/12/31 03:56:46;;;;;;;2.00;1.90;;;2.60;99.90;;;;;;5095469;28;20244;-78
2020/12/31 03:59:11;;;;;;;3.07;2.43;;;2.70;99.90;;;;;;5095467;28;20028;-78
2020/12/31 04:01:37;;;;;;;2.17;1.90;;;2.70;99.90;;;;;;5088277;28;20048;-78
2020/12/31 04:04:03;;;;;;;3.13;1.97;;;2.70;99.90;;;;;;5075210;28;20021;-78
2020/12/31 04:06:29;;;;;;;2.80;1.90;;;2.80;99.90;;;;;;5075071;28;20043;-78
2020/12/31 04:08:55;;;;;;;1.83;1.73;;;2.80;99.90;;;;;;5073897;28;20024;-78
2020/12/31 04:11:21;;;;;;;2.27;1.77;;;2.80;99.90;;;;;;5073710;28;20020;-78
2020/12/31 04:13:47;;;;;;;3.53;1.70;;;2.80;99.90;;;;;;5092818;28;20024;-78
2020/12/31 04:16:13;;;;;;;2.50;1.80;;;2.90;99.90;;;;;;5095142;28;20058;-78
2020/12/31 04:18:39;;;;;;;4.13;2.03;;;2.90;99.90;;;;;;5095213;28;20394;-78
2020/12/31 04:21:04;;;;;;;1.60;1.50;;;2.90;99.90;;;;;;5095102;28;20436;-78
2020/12/31 04:23:30;;;;;;;4.77;2.20;;;2.90;99.90;;;;;;5093634;28;20024;-78
2020/12/31 04:25:56;;;;;;;3.23;2.70;;;2.80;99.90;;;;;;5093828;28;20023;-78
2020/12/31 04:28:21;;;;;;;3.93;3.53;;;2.70;99.90;;;;;;5095014;28;20023;-78
2020/12/31 04:30:48;;;;;;;4.67;3.20;;;2.70;99.90;;;;;;5094878;28;20031;-78
2020/12/31 04:33:15;;;;;;;3.43;2.70;;;2.70;99.90;;;;;;5075651;28;20070;-78
2020/12/31 04:35:41;;;;;;;2.87;2.67;;;2.70;99.90;;;;;;5074537;28;20107;-78
2020/12/31 04:38:07;;;;;;;2.50;2.30;;;2.70;99.90;;;;;;5074659;28;20063;-78
2020/12/31 04:40:33;;;;;;;1.83;1.73;;;2.70;99.90;;;;;;5073267;28;20028;-78
2020/12/31 04:43:00;;;;;;;3.87;3.47;;;2.70;99.90;;;;;;5074258;28;20020;-78
2020/12/31 04:45:26;;;;;;;4.27;3.87;;;2.50;99.90;;;;;;5074353;28;20466;-78
2020/12/31 04:48:09;;;;;;;4.50;3.83;;;2.50;99.90;;;;;;5073184;28;20024;-78
2020/12/31 04:50:40;;;;;;;4.07;3.77;;;2.40;99.90;;;;;;5094556;28;20074;-78
2020/12/31 04:53:08;;;;;;;4.13;3.83;;;2.40;99.90;;;;;;5092956;28;20039;-77
2020/12/31 04:55:41;;;;;;;6.50;4.23;;;2.30;99.90;;;;;;5093208;28;20028;-78
2020/12/31 04:58:11;;;;;;;4.87;4.10;;;2.30;99.90;;;;;;5094426;28;20477;-78
2020/12/31 05:00:38;;;;;;;4.33;3.93;;;2.20;99.90;;;;;;5092952;28;20489;-78
2020/12/31 05:03:05;;;;;;;4.40;3.93;;;2.20;99.90;;;;;;5076590;28;20474;-78
2020/12/31 05:05:31;;;;;;;4.30;3.70;;;2.30;99.90;;;;;;5074039;28;20112;-78
2020/12/31 05:08:01;;;;;;;3.20;2.87;;;2.20;99.90;;;;;;5072766;28;20103;-78
2020/12/31 05:10:28;;;;;;;3.70;3.20;;;2.30;99.90;;;;;;5073793;28;20025;-78
2020/12/31 05:12:57;;;;;;;3.37;3.03;;;2.20;99.90;;;;;;5072569;28;20032;-78
2020/12/31 05:15:41;;;;;;;3.50;3.20;;;2.20;99.90;;;;;;5072502;28;20086;-78
2020/12/31 05:18:19;;;;;;;4.53;2.77;;;2.30;99.90;;;;;;5072417;28;20035;-77
2020/12/31 05:20:49;;;;;;;4.27;2.83;;;2.30;99.90;;;;;;5073600;28;20555;-77
2020/12/31 05:23:17;;;;;;;4.00;3.30;;;2.30;99.90;;;;;;5073540;28;20373;-77
2020/12/31 05:25:43;;;;;;;3.33;3.03;;;2.20;99.90;;;;;;5079771;28;20024;-77
2020/12/31 05:28:28;;;;;;;3.83;3.50;;;2.10;99.90;;;;;;5092031;28;20032;-78
2020/12/31 05:30:57;;;;;;;4.13;3.50;;;2.00;99.90;;;;;;5092705;28;20051;-77
2020/12/31 05:33:31;;;;;;;3.50;3.20;;;2.00;99.90;;;;;;5073385;28;20062;-78
2020/12/31 05:36:25;;;;;;;4.00;3.10;;;2.10;99.90;;;;;;5092391;28;20067;-78
2020/12/31 05:38:57;;;;;;;4.13;3.57;;;2.00;99.90;;;;;;5092362;28;20032;-77
2020/12/31 05:41:28;;;;;;;2.78;2.58;;;2.00;99.90;;;;;;5092246;28;20511;-77
2020/12/31 05:44:07;;;;;;;2.97;2.77;;;2.10;99.90;;;;;;5091876;28;20040;-77
2020/12/31 05:46:38;;;;;;;3.27;3.07;;;2.10;99.90;;;;;;5092303;28;20032;-78
2020/12/31 05:49:09;;;;;;;5.70;3.90;;;2.00;99.90;;;;;;5093227;28;20024;-77
2020/12/31 05:51:39;;;;;;;3.77;3.53;;;2.00;99.90;;;;;;5093417;28;20435;-77
2020/12/31 05:54:11;;;;;;;2.80;2.60;;;2.00;99.90;;;;;;5092159;28;20659;-77
2020/12/31 05:56:39;;;;;;;3.00;2.70;;;2.00;99.90;;;;;;5092194;28;20081;-78
2020/12/31 05:59:26;;;;;;;2.60;2.40;;;2.10;99.90;;;;;;5093382;28;20103;-77
2020/12/31 06:01:56;;;;;;;2.77;2.57;;;2.00;99.90;;;;;;5091449;28;20071;-77
2020/12/31 06:04:46;;;;;;;2.53;2.33;;;1.90;99.90;;;;;;5091479;28;20132;-77
2020/12/31 06:07:29;;;;;;;2.67;2.47;;;1.80;99.90;;;;;;5091997;28;20056;-78
2020/12/31 06:10:06;;;;;;;7.03;2.63;;;1.80;99.90;;;;;;5091942;28;20067;-77
2020/12/31 06:13:12;;;;;;;2.83;2.50;;;1.80;99.90;;;;;;5091453;28;20081;-77
2020/12/31 06:15:38;;;;;;;2.80;2.60;;;1.80;99.90;;;;;;5050324;28;20037;-78
2020/12/31 06:18:05;;;;;;;3.37;2.70;;;1.90;99.90;;;;;;5073830;28;20063;-77
2020/12/31 06:20:33;;;;;;;2.67;2.47;;;1.80;99.90;;;;;;5093025;28;20039;-77
2020/12/31 06:23:00;;;;;;;2.50;2.27;;;1.70;99.90;;;;;;5092853;28;20421;-77
2020/12/31 06:25:45;;;;;;;3.37;2.37;;;1.80;99.90;;;;;;5092925;28;20032;-78
2020/12/31 06:28:15;;;;;;;2.50;2.30;;;1.80;99.90;;;;;;5091722;28;20031;-77
2020/12/31 06:30:46;;;;;;;2.13;2.03;;;1.80;99.90;;;;;;5093037;28;20048;-77
2020/12/31 06:33:12;;;;;;;2.95;1.75;;;1.80;99.90;;;;;;5072987;28;20033;-78
2020/12/31 06:35:39;;;;;;;2.40;2.20;;;1.70;99.90;;;;;;5092898;28;20482;-77
2020/12/31 06:38:05;;;;;;;3.10;2.50;;;1.70;99.90;;;;;;5092839;28;20039;-78
2020/12/31 06:40:33;;;;;;;2.57;2.37;;;1.70;99.90;;;;;;5092778;28;20059;-77
2020/12/31 06:43:09;;;;;;;2.23;2.03;;;1.60;99.90;;;;;;5092813;28;20028;-78
2020/12/31 06:45:35;;;;;;;2.80;2.43;;;1.50;99.90;;;;;;5091534;28;20389;-78
2020/12/31 06:48:01;;;;;;;2.10;1.90;;;1.50;99.90;;;;;;5091464;28;20470;-77
2020/12/31 06:51:06;;;;;;;2.10;1.97;;;1.40;99.90;;;;;;5091433;28;20028;-77
2020/12/31 06:53:39;;;;;;;2.13;2.03;;;1.50;99.90;;;;;;5085293;28;20036;-78
2020/12/31 06:56:12;;;;;;;4.50;2.43;;;1.50;99.90;;;;;;5091490;28;20032;-78
2020/12/31 06:58:39;;;;;;;1.93;1.80;;;1.60;99.90;;;;;;5092782;28;20027;-78
2020/12/31 07:01:24;;;;;;;2.47;1.93;;;1.60;99.90;;;;;;5090204;28;20127;-78
2020/12/31 07:03:51;;;;;;;1.67;1.57;;;1.70;99.90;;;;;;5089775;28;20020;-78
2020/12/31 07:06:22;;;;;;;2.50;1.70;;;1.70;99.90;;;;;;5092644;28;20108;-77
2020/12/31 07:08:53;;;;;;;3.55;1.98;;;1.80;99.90;;;;;;5091447;28;20477;-77
2020/12/31 07:11:29;;;;;;;28.80;9.60;;;1.90;99.90;;;;;;5091119;28;20508;-78
2020/12/31 07:13:55;;;;;;;4.20;2.93;;;1.90;99.90;;;;;;5091325;28;20035;-78
2020/12/31 07:17:06;;;;;;;6.83;2.07;;;1.90;99.90;;;;;;5092751;28;20020;-77
2020/12/31 07:19:35;;;;;;;2.07;1.83;;;1.90;99.90;;;;;;5084453;28;20443;-78
2020/12/31 07:22:11;;;;;;;3.97;2.10;;;1.90;99.90;;;;;;5096093;28;20028;-78
2020/12/31 07:25:07;;;;;;;1.83;1.67;;;2.00;99.90;;;;;;5096264;28;20020;-78
2020/12/31 07:27:41;;;;;;;4.23;2.20;;;2.10;99.90;;;;;;5079435;28;20397;-78
2020/12/31 07:30:20;;;;;;;2.50;1.97;;;2.10;99.90;;;;;;5098796;28;20020;-78
2020/12/31 07:32:55;;;;;;;2.27;1.90;;;2.20;99.90;;;;;;5094651;28;20016;-78
2020/12/31 07:35:20;;;;;;;1.87;1.73;;;2.30;99.90;;;;;;5094988;28;20028;-78
2020/12/31 07:37:51;;;;;;;3.40;2.20;;;2.30;99.90;;;;;;5094642;28;20039;-78
2020/12/31 07:40:40;;;;;;;1.90;1.80;;;2.30;99.90;;;;;;5094700;28;20032;-78
2020/12/31 07:43:08;;;;;;;8.47;1.90;;;2.40;99.90;;;;;;5095828;28;20035;-78
2020/12/31 07:45:34;;;;;;;5.90;1.70;;;2.40;99.90;;;;;;5095819;28;20413;-78
2020/12/31 07:48:00;;;;;;;6.73;2.77;;;2.40;99.90;;;;;;5095718;28;20028;-77
2020/12/31 07:50:27;;;;;;;4.03;3.50;;;2.40;99.90;;;;;;5094487;28;20048;-77
2020/12/31 07:52:53;;;;;;;5.67;3.60;;;2.30;99.90;;;;;;5094194;28;20028;-77
2020/12/31 07:55:19;;;;;;;11.33;4.50;;;2.40;99.90;;;;;;5094242;28;20551;-78
2020/12/31 07:57:48;;;;;;;8.20;5.30;;;2.40;99.90;;;;;;5094215;28;20024;-78
2020/12/31 08:00:17;;;;;;;8.83;5.60;;;2.40;99.90;;;;;;5095118;28;20513;-78
2020/12/31 08:02:55;;;;;;;7.97;5.70;;;2.40;99.90;;;;;;5087877;28;21041;-81
2020/12/31 08:05:33;;;;;;;12.67;8.20;;;2.40;99.90;;;;;;5090319;28;20046;-81
2020/12/31 08:07:59;;;;;;;13.00;8.87;;;2.40;99.90;;;;;;5074198;28;20035;-81
2020/12/31 08:10:35;;;;;;;15.77;9.00;;;2.40;99.90;;;;;;5114325;27;20470;-80
2020/12/31 08:13:07;;;;;;;14.37;8.77;;;2.40;99.90;;;;;;5093633;28;20028;-80
2020/12/31 08:15:40;;;;;;;14.60;8.83;;;2.40;99.90;;;;;;5095248;28;20024;-81
2020/12/31 08:18:15;;;;;;;14.33;8.20;;;2.40;99.90;;;;;;5095239;28;20367;-82
2020/12/31 08:20:49;;;;;;;14.30;8.90;;;2.40;99.90;;;;;;5091113;28;20012;-82
2020/12/31 08:23:21;;;;;;;13.03;8.57;;;2.40;99.90;;;;;;5088057;28;20030;-81
2020/12/31 08:25:55;;;;;;;15.65;8.98;;;2.30;99.90;;;;;;5089104;28;20684;-81
2020/12/31 08:28:22;;;;;;;14.13;9.73;;;2.40;99.90;;;;;;5090940;28;20032;-81
2020/12/31 08:30:48;;;;;;;19.93;12.00;;;2.40;99.90;;;;;;5089849;28;20024;-81
2020/12/31 08:33:26;;;;;;;19.67;12.33;;;2.40;99.90;;;;;;5089618;28;20034;-81
2020/12/31 08:35:52;;;;;;;19.87;11.73;;;2.40;99.90;;;;;;5088993;28;20092;-82
2020/12/31 08:38:23;;;;;;;22.80;11.93;;;2.40;99.90;;;;;;5091593;28;20123;-82
2020/12/31 08:40:53;;;;;;;24.60;13.57;;;2.40;99.90;;;;;;5094039;28;20028;-82
2020/12/31 08:43:46;;;;;;;41.57;19.17;;;2.50;99.90;;;;;;5089703;28;20031;-79
2020/12/31 08:46:33;;;;;;;32.33;16.37;;;2.50;99.90;;;;;;5086891;28;20119;-78
2020/12/31 08:48:58;;;;;;;24.70;12.20;;;2.50;99.90;;;;;;5077781;28;20020;-77
2020/12/31 08:51:30;;;;;;;19.93;11.67;;;3.40;99.90;;;;;;5088630;28;20649;-77
2020/12/31 08:54:01;;;;;;;18.35;11.27;;;3.20;99.90;;;;;;5090459;28;20031;-77
2020/12/31 08:56:29;;;;;;;18.70;11.57;;;3.00;99.90;;;;;;5096210;28;20038;-76
2020/12/31 08:59:15;;;;;;;19.83;9.80;;;2.90;99.90;;;;;;5101460;28;20042;-77
2020/12/31 09:01:46;;;;;;;16.53;10.20;;;2.90;99.90;;;;;;5065273;28;20058;-77
2020/12/31 09:04:19;;;;;;;17.30;10.60;;;2.90;99.90;;;;;;5093503;28;20035;-77
2020/12/31 09:06:57;;;;;;;14.57;10.30;;;2.90;99.90;;;;;;5090619;28;20023;-76
2020/12/31 09:09:28;;;;;;;17.40;10.63;;;2.90;99.90;;;;;;5071360;28;20056;-77
2020/12/31 09:11:57;;;;;;;18.33;10.53;;;2.90;99.90;;;;;;5073887;28;20025;-77
2020/12/31 09:14:23;;;;;;;12.70;9.20;;;3.00;99.90;;;;;;5092828;28;20441;-76
2020/12/31 09:16:49;;;;;;;17.43;10.23;;;3.00;99.90;;;;;;5092846;28;20359;-76
2020/12/31 09:19:16;;;;;;;13.60;9.43;;;3.00;99.90;;;;;;5094119;28;20038;-76
2020/12/31 09:21:42;;;;;;;18.77;12.13;;;3.00;99.90;;;;;;5093975;28;20504;-76
2020/12/31 09:24:15;;;;;;;14.03;10.27;;;3.10;99.90;;;;;;5108133;28;20028;-76
2020/12/31 09:27:07;;;;;;;16.30;11.33;;;3.10;99.90;;;;;;5092472;28;20024;-77
2020/12/31 09:29:34;;;;;;;14.75;10.30;;;3.10;99.90;;;;;;5091827;28;20024;-77
2020/12/31 09:32:00;;;;;;;11.30;8.90;;;3.10;99.90;;;;;;5095004;28;20023;-77
2020/12/31 09:34:25;;;;;;;14.30;8.10;;;3.20;99.90;;;;;;5092524;28;20076;-76
2020/12/31 09:36:57;;;;;;;10.40;8.13;;;3.20;99.90;;;;;;5092319;28;20073;-76
2020/12/31 09:39:23;;;;;;;13.15;7.72;;;3.20;99.90;;;;;;5092650;28;20473;-76
2020/12/31 09:41:49;;;;;;;12.60;9.43;;;3.30;99.90;;;;;;5095307;28;20024;-77
2020/12/31 09:44:15;;;;;;;12.47;9.37;;;3.30;99.90;;;;;;5093678;28;20035;-76
2020/12/31 09:46:40;;;;;;;17.17;11.07;;;3.30;99.90;;;;;;5092291;28;20024;-77
2020/12/31 09:49:06;;;;;;;18.53;11.97;;;3.40;99.90;;;;;;5093296;28;20020;-77
2020/12/31 09:51:31;;;;;;;27.87;15.60;;;3.50;99.90;;;;;;5091819;28;20024;-77
2020/12/31 09:53:57;;;;;;;16.33;11.20;;;3.50;99.90;;;;;;5092076;28;20115;-77
2020/12/31 09:56:29;;;;;;;10.80;7.30;;;3.60;99.90;;;;;;5092022;28;20121;-78
2020/12/31 09:58:56;;;;;;;11.00;7.17;;;3.60;99.90;;;;;;5093044;28;20028;-77
2020/12/31 10:01:22;;;;;;;8.47;7.00;;;3.60;99.90;;;;;;5091421;28;20409;-78
2020/12/31 10:03:51;;;;;;;10.20;7.43;;;3.70;99.90;;;;;;5091637;28;20485;-78
2020/12/31 10:06:16;;;;;;;9.33;7.13;;;3.70;99.90;;;;;;5091430;28;20043;-78
2020/12/31 10:08:42;;;;;;;8.97;6.77;;;3.70;99.90;;;;;;5093134;28;20024;-77
2020/12/31 10:11:08;;;;;;;9.33;7.00;;;3.80;99.90;;;;;;5091569;28;20035;-77
2020/12/31 10:13:35;;;;;;;7.63;5.13;;;3.80;99.90;;;;;;5092877;28;20028;-78
2020/12/31 10:16:04;;;;;;;7.30;5.23;;;4.00;99.90;;;;;;5092650;28;20111;-78
2020/12/31 10:18:31;;;;;;;7.83;5.27;;;4.10;99.90;;;;;;5075123;28;20028;-78
2020/12/31 10:20:57;;;;;;;9.10;5.33;;;4.20;99.90;;;;;;5090130;28;20386;-78
2020/12/31 10:23:22;;;;;;;7.07;5.00;;;4.20;99.90;;;;;;5089526;28;20080;-78
2020/12/31 10:25:49;;;;;;;8.68;5.45;;;4.30;99.90;;;;;;5090470;28;20024;-78
2020/12/31 10:28:19;;;;;;;6.53;4.28;;;4.50;99.90;;;;;;5091366;28;20154;-77
2020/12/31 10:30:51;;;;;;;5.32;4.88;;;4.60;99.90;;;;;;5090927;28;20394;-77
2020/12/31 10:33:17;;;;;;;7.50;5.38;;;4.70;99.90;;;;;;5089380;28;20024;-78
2020/12/31 10:35:44;;;;;;;5.30;4.45;;;4.70;99.90;;;;;;5088808;28;20043;-78
2020/12/31 10:38:09;;;;;;;9.63;6.53;;;4.70;99.90;;;;;;5089793;28;20032;-78
2020/12/31 10:40:35;;;;;;;11.05;7.78;;;4.70;99.90;;;;;;5090699;28;20024;-78
2020/12/31 10:43:04;;;;;;;12.63;7.93;;;4.70;99.90;;;;;;5090255;28;20031;-78
2020/12/31 10:45:30;;;;;;;13.80;8.40;;;4.70;99.90;;;;;;5090864;28;20024;-78
2020/12/31 10:47:55;;;;;;;13.25;7.78;;;4.80;99.90;;;;;;5089068;28;20583;-78
2020/12/31 10:50:21;;;;;;;15.68;7.82;;;4.90;99.90;;;;;;5090310;28;20056;-78
2020/12/31 10:52:47;;;;;;;17.55;9.40;;;4.90;99.90;;;;;;5094330;28;20474;-78
2020/12/31 10:55:12;;;;;;;15.00;9.55;;;4.90;99.90;;;;;;5093362;28;20134;-78
2020/12/31 10:57:38;;;;;;;17.15;9.65;;;4.90;99.90;;;;;;5095182;28;20028;-78
2020/12/31 11:00:04;;;;;;;12.05;8.38;;;5.00;99.90;;;;;;5094963;28;20032;-78
2020/12/31 11:02:29;;;;;;;13.52;9.27;;;5.10;99.90;;;;;;5096184;28;20028;-78
2020/12/31 11:04:55;;;;;;;12.75;8.00;;;5.10;99.90;;;;;;5095218;28;20416;-78
2020/12/31 11:07:21;;;;;;;10.75;7.88;;;5.20;99.90;;;;;;5095162;28;20355;-78
2020/12/31 11:09:46;;;;;;;9.43;6.68;;;5.20;99.90;;;;;;5096539;28;20016;-78
2020/12/31 11:12:12;;;;;;;8.65;6.07;;;5.40;99.90;;;;;;5096105;28;20077;-77
2020/12/31 11:14:37;;;;;;;5.22;4.72;;;5.40;99.90;;;;;;5094927;28;20028;-78
2020/12/31 11:17:03;;;;;;;4.30;3.95;;;5.60;99.90;;;;;;5095358;28;20024;-78
2020/12/31 11:19:29;;;;;;;4.45;4.05;;;5.70;99.90;;;;;;5101974;28;20020;-77
2020/12/31 11:21:55;;;;;;;4.63;4.18;;;5.70;99.90;;;;;;5094341;28;20024;-77
2020/12/31 11:24:25;;;;;;;4.72;4.28;;;5.70;99.90;;;;;;5093653;28;20024;-78
2020/12/31 11:27:01;;;;;;;7.85;6.53;;;5.70;99.90;;;;;;5099791;28;20035;-78
2020/12/31 11:29:26;;;;;;;9.65;6.90;;;5.80;99.90;;;;;;5114545;28;20412;-77
2020/12/31 11:31:55;;;;;;;19.25;9.88;;;5.90;99.90;;;;;;5108070;28;20016;-77
2020/12/31 11:34:27;;;;;;;12.00;9.63;;;6.00;99.90;;;;;;5093531;28;20047;-77
2020/12/31 11:36:54;;;;;;;12.15;8.45;;;6.10;99.90;;;;;;5094765;28;20016;-77
2020/12/31 11:39:32;;;;;;;17.67;10.75;;;6.10;99.90;;;;;;5094535;28;20073;-77
2020/12/31 11:42:01;;;;;;;14.82;10.52;;;6.20;99.90;;;;;;5095698;28;20042;-77
2020/12/31 11:44:27;;;;;;;17.08;10.48;;;6.20;99.90;;;;;;5095742;28;20103;-77
2020/12/31 11:47:05;;;;;;;14.55;9.00;;;6.30;99.90;;;;;;5093792;28;20047;-77
2020/12/31 11:49:31;;;;;;;13.52;10.05;;;6.30;99.90;;;;;;5095642;28;20024;-77
2020/12/31 11:51:59;;;;;;;19.25;12.65;;;6.30;99.90;;;;;;5094349;28;20031;-77
2020/12/31 11:54:33;;;;;;;16.13;11.70;;;6.40;99.90;;;;;;5095444;28;20024;-77
2020/12/31 11:56:59;;;;;;;17.42;11.50;;;6.40;99.90;;;;;;5094283;28;20055;-78
2020/12/31 11:59:25;;;;;;;14.55;10.80;;;6.40;99.90;;;;;;5095387;28;20482;-77
2020/12/31 12:02:06;;;;;;;13.95;11.05;;;6.40;99.90;;;;;;5094966;28;20072;-77
2020/12/31 12:04:34;;;;;;;13.70;10.45;;;6.40;99.90;;;;;;5093610;28;20056;-77
2020/12/31 12:07:00;;;;;;;15.63;10.57;;;6.40;99.90;;;;;;5095122;28;20030;-77
2020/12/31 12:09:25;;;;;;;13.48;9.98;;;6.40;99.90;;;;;;5094805;28;20107;-77
2020/12/31 12:12:00;;;;;;;13.48;10.02;;;6.40;99.90;;;;;;5094879;28;20029;-77
2020/12/31 12:14:35;;;;;;;14.40;9.27;;;6.40;99.90;;;;;;5095182;28;20470;-77
2020/12/31 12:17:01;;;;;;;10.65;7.47;;;6.50;99.90;;;;;;5093945;28;20462;-77
2020/12/31 12:19:28;;;;;;;8.63;6.25;;;6.50;99.90;;;;;;5093834;28;20102;-77
2020/12/31 12:22:00;;;;;;;11.45;7.47;;;6.50;99.90;;;;;;5093123;28;20077;-78
2020/12/31 12:24:30;;;;;;;9.45;7.32;;;6.50;99.90;;;;;;5093524;28;20024;-77
2020/12/31 12:26:56;;;;;;;10.52;7.78;;;6.50;99.90;;;;;;5093368;28;20027;-77
2020/12/31 12:29:23;;;;;;;10.93;8.38;;;6.60;99.90;;;;;;5093595;28;20016;-77
2020/12/31 12:31:48;;;;;;;16.40;9.35;;;6.60;99.90;;;;;;5094937;28;20024;-77
2020/12/31 12:34:14;;;;;;;9.70;7.80;;;6.60;99.90;;;;;;5093564;28;20028;-77
2020/12/31 12:36:41;;;;;;;13.15;8.25;;;6.70;99.90;;;;;;5093795;28;20461;-77
2020/12/31 12:39:07;;;;;;;13.90;9.23;;;6.70;99.90;;;;;;5094857;28;20028;-77
2020/12/31 12:41:33;;;;;;;11.35;7.43;;;6.70;99.90;;;;;;5093402;28;20473;-77
2020/12/31 12:44:00;;;;;;;16.80;9.77;;;6.70;99.90;;;;;;5094832;28;20040;-77
2020/12/31 12:46:26;;;;;;;16.15;10.07;;;6.70;99.90;;;;;;5094685;28;20069;-77
2020/12/31 12:48:51;;;;;;;11.75;7.60;;;6.70;99.90;;;;;;5094719;28;20032;-77
2020/12/31 12:51:17;;;;;;;6.75;6.13;;;6.70;99.90;;;;;;5094613;28;20034;-77
2020/12/31 12:53:43;;;;;;;9.35;6.97;;;6.70;99.90;;;;;;5094599;28;20112;-77
2020/12/31 12:56:12;;;;;;;8.25;6.32;;;6.70;99.90;;;;;;5093198;28;20058;-77
2020/12/31 12:58:39;;;;;;;7.68;6.00;;;6.70;99.90;;;;;;5093238;28;20024;-77
2020/12/31 13:01:05;;;;;;;13.02;7.40;;;6.70;99.90;;;;;;5092920;28;20056;-77
2020/12/31 13:03:30;;;;;;;12.48;6.82;;;6.60;99.90;;;;;;5094245;28;20020;-77